createdAt,value
2022-10-10T00:01:35.370Z,101189.31
2022-10-10T00:04:03.830Z,101184.28
2022-10-10T00:06:33.396Z,101191.19
2022-10-10T00:09:02.059Z,101186.38
2022-10-10T00:11:29.240Z,101174.56
2022-10-10T00:13:56.588Z,101180.06
2022-10-10T00:16:23.696Z,101184.16
2022-10-10T00:18:52.102Z,101182.44
2022-10-10T00:21:19.328Z,101188.38
2022-10-10T00:23:46.412Z,101181.13
2022-10-10T00:26:18.542Z,101173.97
2022-10-10T00:28:47.228Z,101186.13
2022-10-10T00:31:14.676Z,101185.97
2022-10-10T00:33:41.778Z,101185.47
2022-10-10T00:36:08.768Z,101192.81
2022-10-10T00:38:35.848Z,101181.41
2022-10-10T00:41:03.623Z,101179.06
2022-10-10T00:43:32.112Z,101187.63
2022-10-10T00:45:59.512Z,101181.06
2022-10-10T00:48:31.671Z,101178.72
2022-10-10T00:51:24.551Z,101173.91
2022-10-10T00:53:58.891Z,101175.91
2022-10-10T00:56:30.964Z,101175.75
2022-10-10T00:59:04.203Z,101169.25
2022-10-10T01:01:31.184Z,101162.44
2022-10-10T01:04:00.534Z,101156.06
2022-10-10T01:06:27.683Z,101162.66
2022-10-10T01:08:56.588Z,101158.16
2022-10-10T01:11:48.463Z,101156.13
2022-10-10T01:14:27.456Z,101156.66
2022-10-10T01:17:12.707Z,101161.09
2022-10-10T01:20:16.638Z,101160.72
2022-10-10T01:23:11.277Z,101156.06
2022-10-10T01:26:24.002Z,101158.97
2022-10-10T01:29:06.931Z,101154.38
2022-10-10T01:31:40.954Z,101165.03
2022-10-10T01:34:12.823Z,101154.63
2022-10-10T01:37:13.245Z,101140.94
2022-10-10T01:39:51.209Z,101146.56
2022-10-10T01:42:38.566Z,101154.66
2022-10-10T01:45:06.737Z,101152.28
2022-10-10T01:47:33.824Z,101147.38
2022-10-10T01:50:09.245Z,101142.75
2022-10-10T01:53:09.843Z,101141.75
2022-10-10T01:55:49.115Z,101131.09
2022-10-10T01:59:06.331Z,101127.16
2022-10-10T02:02:00.048Z,101133.13
2022-10-10T02:04:31.595Z,101133.81
2022-10-10T02:07:24.036Z,101138.25
2022-10-10T02:09:52.823Z,101124.41
2022-10-10T02:12:22.229Z,101127.13
2022-10-10T02:14:54.540Z,101122.28
2022-10-10T02:17:24.626Z,101129.59
2022-10-10T02:19:55.498Z,101122.25
2022-10-10T02:22:24.609Z,101123.91
2022-10-10T02:24:53.079Z,101122.63
2022-10-10T02:27:59.158Z,101125.91
2022-10-10T02:30:26.958Z,101126.25
2022-10-10T02:33:01.563Z,101126.97
2022-10-10T02:35:42.511Z,101114.19
2022-10-10T02:38:13.272Z,101118.84
2022-10-10T02:40:43.373Z,101111.22
2022-10-10T02:43:12.397Z,101110.78
2022-10-10T02:45:41.164Z,101117.13
2022-10-10T02:48:08.899Z,101118.59
2022-10-10T02:50:36.018Z,101117.56
2022-10-10T02:53:03.017Z,101120.34
2022-10-10T02:55:29.963Z,101117.63
2022-10-10T02:57:57.154Z,101109.72
2022-10-10T03:00:24.169Z,101119.13
2022-10-10T03:02:51.275Z,101119.00
2022-10-10T03:05:18.523Z,101127.16
2022-10-10T03:07:45.441Z,101130.47
2022-10-10T03:10:12.530Z,101119.44
2022-10-10T03:12:39.412Z,101118.00
2022-10-10T03:15:11.445Z,101125.22
2022-10-10T03:17:39.036Z,101118.16
2022-10-10T03:20:07.189Z,101112.00
2022-10-10T03:22:34.121Z,101113.25
2022-10-10T03:25:01.144Z,101114.38
2022-10-10T03:27:28.257Z,101118.00
2022-10-10T03:29:55.194Z,101114.38
2022-10-10T03:32:22.302Z,101128.25
2022-10-10T03:34:49.197Z,101120.94
2022-10-10T03:37:16.178Z,101117.34
2022-10-10T03:39:43.085Z,101114.63
2022-10-10T03:42:09.980Z,101113.75
2022-10-10T03:44:36.942Z,101122.66
2022-10-10T03:47:03.902Z,101120.16
2022-10-10T03:49:30.899Z,101117.84
2022-10-10T03:51:58.083Z,101112.47
2022-10-10T03:54:24.958Z,101118.03
2022-10-10T03:56:51.831Z,101120.19
2022-10-10T03:59:20.033Z,101122.66
2022-10-10T04:01:46.934Z,101122.53
2022-10-10T04:04:14.012Z,101123.88
2022-10-10T04:06:40.946Z,101110.59
2022-10-10T04:09:07.940Z,101108.47
2022-10-10T04:11:37.053Z,101116.06
2022-10-10T04:14:04.094Z,101119.22
2022-10-10T04:16:30.969Z,101123.84
2022-10-10T04:18:57.897Z,101130.28
2022-10-10T04:21:24.785Z,101137.03
2022-10-10T04:23:51.748Z,101137.25
2022-10-10T04:26:18.666Z,101148.22
2022-10-10T04:28:46.444Z,101136.97
2022-10-10T04:31:13.459Z,101134.34
2022-10-10T04:33:40.395Z,101130.69
2022-10-10T04:36:08.070Z,101133.03
2022-10-10T04:38:36.234Z,101146.69
2022-10-10T04:41:03.488Z,101130.28
2022-10-10T04:43:30.507Z,101129.06
2022-10-10T04:46:00.892Z,101133.38
2022-10-10T04:48:28.101Z,101130.34
2022-10-10T04:50:58.581Z,101118.88
2022-10-10T04:53:26.991Z,101124.06
2022-10-10T04:55:54.043Z,101120.31
2022-10-10T04:58:21.108Z,101117.06
2022-10-10T05:00:53.084Z,101110.19
2022-10-10T05:03:21.155Z,101114.44
2022-10-10T05:05:48.286Z,101119.25
2022-10-10T05:08:15.229Z,101118.41
2022-10-10T05:10:42.376Z,101106.03
2022-10-10T05:13:14.924Z,101116.78
2022-10-10T05:15:43.083Z,101127.75
2022-10-10T05:18:10.009Z,101120.16
2022-10-10T05:20:37.162Z,101122.00
2022-10-10T05:23:04.712Z,101116.31
2022-10-10T05:25:32.003Z,101135.56
2022-10-10T05:27:58.948Z,101125.72
2022-10-10T05:30:25.918Z,101127.16
2022-10-10T05:32:53.246Z,101126.53
2022-10-10T05:35:20.567Z,101131.78
2022-10-10T05:37:47.522Z,101127.91
2022-10-10T05:40:14.600Z,101138.50
2022-10-10T05:42:41.509Z,101145.53
2022-10-10T05:45:09.022Z,101141.50
2022-10-10T05:47:36.005Z,101142.13
2022-10-10T05:50:03.808Z,101139.91
2022-10-10T05:52:31.212Z,101141.03
2022-10-10T05:54:58.082Z,101131.09
2022-10-10T05:57:25.016Z,101135.44
2022-10-10T05:59:51.952Z,101137.09
2022-10-10T06:02:18.953Z,101141.47
2022-10-10T06:04:45.900Z,101140.84
2022-10-10T06:07:12.828Z,101145.22
2022-10-10T06:09:39.728Z,101148.88
2022-10-10T06:12:06.731Z,101155.97
2022-10-10T06:14:33.671Z,101160.63
2022-10-10T06:17:00.551Z,101154.28
2022-10-10T06:19:27.462Z,101153.06
2022-10-10T06:21:54.343Z,101144.41
2022-10-10T06:24:21.408Z,101149.72
2022-10-10T06:26:48.310Z,101146.47
2022-10-10T06:29:15.192Z,101151.19
2022-10-10T06:31:42.257Z,101151.84
2022-10-10T06:34:09.159Z,101164.13
2022-10-10T06:36:36.150Z,101153.91
2022-10-10T06:39:03.309Z,101152.53
2022-10-10T06:41:30.436Z,101163.31
2022-10-10T06:43:57.352Z,101159.88
2022-10-10T06:46:24.291Z,101156.47
2022-10-10T06:48:51.219Z,101163.63
2022-10-10T06:51:18.667Z,101152.59
2022-10-10T06:53:46.411Z,101153.09
2022-10-10T06:56:26.326Z,101151.81
2022-10-10T06:58:54.362Z,101146.41
2022-10-10T07:01:24.194Z,101153.28
2022-10-10T07:03:51.329Z,101160.94
2022-10-10T07:06:18.442Z,101179.34
2022-10-10T07:08:45.688Z,101176.34
2022-10-10T07:11:12.790Z,101184.38
2022-10-10T07:13:40.440Z,101192.41
2022-10-10T07:16:07.521Z,101202.28
2022-10-10T07:18:36.772Z,101211.09
2022-10-10T07:21:04.759Z,101212.78
2022-10-10T07:23:32.929Z,101200.41
2022-10-10T07:26:12.125Z,101208.19
2022-10-10T07:28:39.874Z,101202.44
2022-10-10T07:31:10.469Z,101204.81
2022-10-10T07:33:43.030Z,101214.50
2022-10-10T07:36:14.208Z,101205.75
2022-10-10T07:38:41.488Z,101209.94
2022-10-10T07:41:12.069Z,101211.16
2022-10-10T07:43:40.087Z,101219.38
2022-10-10T07:46:18.558Z,101217.19
2022-10-10T07:48:45.648Z,101211.09
2022-10-10T07:51:13.158Z,101206.53
2022-10-10T07:53:41.396Z,101203.25
2022-10-10T07:56:09.581Z,101208.19
2022-10-10T07:58:37.049Z,101210.56
2022-10-10T08:01:13.993Z,101220.38
2022-10-10T08:03:41.765Z,101219.09
2022-10-10T08:06:12.723Z,101215.63
2022-10-10T08:08:50.094Z,101225.94
2022-10-10T08:11:18.889Z,101231.00
2022-10-10T08:13:46.044Z,101232.06
2022-10-10T08:16:13.135Z,101230.44
2022-10-10T08:18:40.013Z,101232.63
2022-10-10T08:21:10.972Z,101247.25
2022-10-10T08:23:38.099Z,101239.44
2022-10-10T08:26:09.149Z,101239.44
2022-10-10T08:28:36.925Z,101246.16
2022-10-10T08:31:09.622Z,101253.56
2022-10-10T08:33:36.982Z,101248.84
2022-10-10T08:36:13.488Z,101263.22
2022-10-10T08:38:40.379Z,101249.91
2022-10-10T08:41:25.348Z,101243.91
2022-10-10T08:43:58.387Z,101243.16
2022-10-10T08:46:46.731Z,101246.19
2022-10-10T08:49:37.433Z,101251.13
2022-10-10T08:52:28.104Z,101263.41
2022-10-10T08:54:58.489Z,101255.13
2022-10-10T08:57:33.434Z,101251.09
2022-10-10T09:00:06.406Z,101254.50
2022-10-10T09:02:53.048Z,101263.00
2022-10-10T09:05:41.471Z,101271.41
2022-10-10T09:08:28.286Z,101274.44
2022-10-10T09:11:07.576Z,101273.78
2022-10-10T09:13:59.321Z,101269.72
2022-10-10T09:16:50.937Z,101279.38
2022-10-10T09:19:27.739Z,101281.22
2022-10-10T09:22:00.992Z,101276.09
2022-10-10T09:24:53.574Z,101279.00
2022-10-10T09:27:30.434Z,101277.31
2022-10-10T09:30:18.681Z,101265.81
2022-10-10T09:33:18.068Z,101261.94
2022-10-10T09:35:47.624Z,101267.25
2022-10-10T09:38:38.923Z,101271.13
2022-10-10T09:41:23.619Z,101272.09
2022-10-10T09:43:57.308Z,101278.81
2022-10-10T09:46:25.263Z,101285.59
2022-10-10T09:48:54.825Z,101283.66
2022-10-10T09:51:22.420Z,101288.53
2022-10-10T09:53:50.892Z,101290.47
2022-10-10T09:56:25.601Z,101293.13
2022-10-10T09:58:54.933Z,101297.03
2022-10-10T10:01:35.231Z,101297.56
2022-10-10T10:04:27.717Z,101304.22
2022-10-10T10:07:19.271Z,101291.19
2022-10-10T10:10:27.458Z,101299.16
2022-10-10T10:12:55.974Z,101300.13
2022-10-10T10:15:32.238Z,101305.81
2022-10-10T10:18:17.358Z,101309.00
2022-10-10T10:20:48.051Z,101309.81
2022-10-10T10:23:56.371Z,101311.03
2022-10-10T10:26:47.577Z,101323.97
2022-10-10T10:29:33.724Z,101330.47
2022-10-10T10:32:25.152Z,101337.59
2022-10-10T10:35:10.003Z,101342.72
2022-10-10T10:38:14.151Z,101349.88
2022-10-10T10:40:46.417Z,101345.94
2022-10-10T10:43:50.964Z,101361.22
2022-10-10T10:46:28.099Z,101370.13
2022-10-10T10:49:19.703Z,101373.53
2022-10-10T10:52:21.680Z,101376.25
2022-10-10T10:55:15.073Z,101383.88
2022-10-10T11:01:55.439Z,101397.97
2022-10-10T11:05:17.559Z,101396.09
2022-10-10T11:08:18.323Z,101390.97
2022-10-10T11:11:31.245Z,101385.72
2022-10-10T11:14:22.398Z,101385.22
2022-10-10T11:17:07.328Z,101379.94
2022-10-10T11:20:28.217Z,101391.41
2022-10-10T11:23:19.873Z,101383.84
2022-10-10T11:26:03.722Z,101388.38
2022-10-10T11:29:00.677Z,101397.31
2022-10-10T11:31:37.264Z,101392.72
2022-10-10T11:34:13.170Z,101393.25
2022-10-10T11:36:43.543Z,101404.72
2022-10-10T11:39:22.427Z,101412.28
2022-10-10T11:41:59.130Z,101410.16
2022-10-10T11:44:35.278Z,101406.25
2022-10-10T11:47:36.101Z,101409.88
2022-10-10T11:50:12.881Z,101415.06
2022-10-10T11:53:22.906Z,101416.88
2022-10-10T11:56:27.631Z,101410.28
2022-10-10T11:59:25.957Z,101406.34
2022-10-10T12:04:37.860Z,101415.00
2022-10-10T12:07:14.009Z,101422.13
2022-10-10T12:09:52.438Z,101410.97
2022-10-10T12:12:37.786Z,101415.34
2022-10-10T12:15:10.129Z,101408.16
2022-10-10T12:17:44.162Z,101406.91
2022-10-10T12:20:17.187Z,101416.47
2022-10-10T12:22:44.282Z,101416.44
2022-10-10T12:25:11.123Z,101419.47
2022-10-10T12:28:04.645Z,101438.16
2022-10-10T12:30:31.691Z,101443.19
2022-10-10T12:32:59.063Z,101432.91
2022-10-10T12:35:41.291Z,101438.63
2022-10-10T12:38:27.849Z,101434.94
2022-10-10T12:40:57.679Z,101437.25
2022-10-10T12:43:44.431Z,101451.44
2022-10-10T12:46:33.089Z,101445.16
2022-10-10T12:49:24.711Z,101455.34
2022-10-10T12:52:12.641Z,101455.69
2022-10-10T12:54:45.604Z,101452.03
2022-10-10T12:57:30.178Z,101457.22
2022-10-10T13:00:01.829Z,101469.66
2022-10-10T13:02:29.138Z,101464.31
2022-10-10T13:05:02.154Z,101478.44
2022-10-10T13:07:29.514Z,101481.88
2022-10-10T13:10:18.749Z,101490.31
2022-10-10T13:12:45.674Z,101494.72
2022-10-10T13:15:21.101Z,101499.78
2022-10-10T13:17:48.052Z,101502.13
2022-10-10T13:20:37.473Z,101505.66
2022-10-10T13:23:22.592Z,101490.41
2022-10-10T13:25:49.553Z,101494.53
2022-10-10T13:28:19.669Z,101502.63
2022-10-10T13:30:48.505Z,101510.66
2022-10-10T13:33:20.019Z,101518.00
2022-10-10T13:35:49.797Z,101515.28
2022-10-10T13:38:20.505Z,101531.66
2022-10-10T13:40:47.945Z,101526.91
2022-10-10T13:43:17.812Z,101538.44
2022-10-10T13:45:56.384Z,101534.94
2022-10-10T13:48:35.489Z,101538.91
2022-10-10T13:51:07.606Z,101552.09
2022-10-10T13:53:42.474Z,101557.41
2022-10-10T13:56:09.283Z,101566.50
2022-10-10T13:58:45.827Z,101568.13
2022-10-10T14:01:43.738Z,101569.13
2022-10-10T14:04:13.731Z,101578.97
2022-10-10T14:06:47.984Z,101587.63
2022-10-10T14:09:42.988Z,101596.69
2022-10-10T14:12:51.881Z,101602.41
2022-10-10T14:15:46.839Z,101611.84
2022-10-10T14:18:21.193Z,101613.88
2022-10-10T14:20:49.032Z,101633.75
2022-10-10T14:23:16.535Z,101634.06
2022-10-10T14:25:46.919Z,101633.78
2022-10-10T14:28:31.411Z,101641.41
2022-10-10T14:30:59.514Z,101652.81
2022-10-10T14:33:27.380Z,101669.66
2022-10-10T14:35:56.432Z,101673.75
2022-10-10T14:38:23.434Z,101682.50
2022-10-10T14:40:51.358Z,101673.25
2022-10-10T14:43:20.538Z,101685.09
2022-10-10T14:45:50.466Z,101693.44
2022-10-10T14:48:18.035Z,101702.31
2022-10-10T14:50:48.194Z,101706.34
2022-10-10T14:53:16.059Z,101703.75
2022-10-10T14:55:46.133Z,101702.31
2022-10-10T14:58:19.973Z,101706.78
2022-10-10T15:00:47.730Z,101704.34
2022-10-10T15:03:15.140Z,101720.53
2022-10-10T15:05:42.578Z,101717.97
2022-10-10T15:08:14.430Z,101723.44
2022-10-10T15:10:42.541Z,101727.66
2022-10-10T15:13:13.918Z,101745.31
2022-10-10T15:15:41.471Z,101736.91
2022-10-10T15:18:25.631Z,101735.44
2022-10-10T15:20:55.959Z,101739.31
2022-10-10T15:23:22.924Z,101744.59
2022-10-10T15:25:50.030Z,101743.97
2022-10-10T15:28:17.223Z,101751.03
2022-10-10T15:30:47.346Z,101754.44
2022-10-10T15:33:14.284Z,101755.34
2022-10-10T15:36:07.364Z,101766.78
2022-10-10T15:38:29.817Z,101763.34
2022-10-10T15:41:03.029Z,101760.72
2022-10-10T15:43:31.131Z,101768.38
2022-10-10T15:46:01.155Z,101775.84
2022-10-10T15:48:28.194Z,101776.03
2022-10-10T15:50:55.607Z,101781.88
2022-10-10T15:53:22.516Z,101789.03
2022-10-10T15:55:49.618Z,101791.47
2022-10-10T15:58:16.764Z,101792.28
2022-10-10T16:00:45.028Z,101786.16
2022-10-10T16:03:12.393Z,101791.81
2022-10-10T16:05:41.523Z,101786.50
2022-10-10T16:08:12.074Z,101800.78
2022-10-10T16:10:41.989Z,101799.38
2022-10-10T16:13:10.067Z,101796.81
2022-10-10T16:15:37.568Z,101804.34
2022-10-10T16:18:04.585Z,101814.56
2022-10-10T16:20:31.508Z,101817.06
2022-10-10T16:22:58.519Z,101807.25
2022-10-10T16:25:25.457Z,101825.31
2022-10-10T16:27:52.869Z,101822.50
2022-10-10T16:30:20.998Z,101833.84
2022-10-10T16:32:48.997Z,101836.75
2022-10-10T16:35:25.976Z,101835.00
2022-10-10T16:37:52.972Z,101835.75
2022-10-10T16:40:20.009Z,101843.94
2022-10-10T16:42:46.958Z,101833.81
2022-10-10T16:45:13.908Z,101836.53
2022-10-10T16:47:40.851Z,101849.25
2022-10-10T16:50:08.370Z,101842.16
2022-10-10T16:52:38.030Z,101841.78
2022-10-10T16:55:08.629Z,101859.16
2022-10-10T16:57:36.635Z,101864.03
2022-10-10T17:00:06.050Z,101863.66
2022-10-10T17:02:33.001Z,101877.25
2022-10-10T17:05:00.764Z,101886.69
2022-10-10T17:07:27.973Z,101882.72
2022-10-10T17:09:54.867Z,101884.22
2022-10-10T17:12:21.851Z,101892.91
2022-10-10T17:14:49.429Z,101892.91
2022-10-10T17:17:17.485Z,101896.59
2022-10-10T17:19:44.517Z,101906.38
2022-10-10T17:22:11.489Z,101900.63
2022-10-10T17:24:38.610Z,101908.31
2022-10-10T17:27:05.553Z,101907.94
2022-10-10T17:29:32.440Z,101916.59
2022-10-10T17:32:04.098Z,101928.78
2022-10-10T17:34:33.127Z,101929.31
2022-10-10T17:37:00.067Z,101934.09
2022-10-10T17:39:27.100Z,101942.63
2022-10-10T17:41:54.047Z,101947.72
2022-10-10T17:44:21.084Z,101945.09
2022-10-10T17:46:48.008Z,101961.72
2022-10-10T17:49:15.101Z,101965.84
2022-10-10T17:51:42.072Z,101967.59
2022-10-10T17:54:10.115Z,101969.16
2022-10-10T17:56:37.688Z,101984.56
2022-10-10T17:59:06.705Z,101984.81
2022-10-10T18:01:36.173Z,101985.34
2022-10-10T18:04:03.398Z,101990.66
2022-10-10T18:06:33.030Z,102005.25
2022-10-10T18:09:00.589Z,101997.59
2022-10-10T18:11:31.076Z,102009.91
2022-10-10T18:14:01.719Z,102001.16
2022-10-10T18:16:33.953Z,102012.41
2022-10-10T18:19:03.431Z,102014.78
2022-10-10T18:21:30.415Z,102010.63
2022-10-10T18:23:57.400Z,102022.84
2022-10-10T18:26:27.189Z,102041.97
2022-10-10T18:28:55.868Z,102037.88
2022-10-10T18:31:31.151Z,102031.53
2022-10-10T18:33:58.127Z,102039.63
2022-10-10T18:36:27.976Z,102035.97
2022-10-10T18:38:59.435Z,102046.84
2022-10-10T18:41:32.765Z,102040.94
2022-10-10T18:44:01.604Z,102056.34
2022-10-10T18:46:28.574Z,102055.81
2022-10-10T18:48:55.523Z,102050.28
2022-10-10T18:51:29.626Z,102065.88
2022-10-10T18:54:04.290Z,102057.41
2022-10-10T18:56:33.373Z,102067.06
2022-10-10T18:59:02.887Z,102074.34
2022-10-10T19:01:36.522Z,102070.56
2022-10-10T19:04:06.489Z,102080.56
2022-10-10T19:06:34.513Z,102081.81
2022-10-10T19:09:03.549Z,102074.66
2022-10-10T19:11:35.152Z,102088.66
2022-10-10T19:14:09.496Z,102094.34
2022-10-10T19:16:37.434Z,102085.03
2022-10-10T19:19:04.969Z,102091.03
2022-10-10T19:21:37.120Z,102089.22
2022-10-10T19:24:07.324Z,102106.59
2022-10-10T19:26:35.666Z,102097.22
2022-10-10T19:29:07.409Z,102101.84
2022-10-10T19:31:37.899Z,102101.69
2022-10-10T19:34:05.413Z,102104.03
2022-10-10T19:36:32.607Z,102115.94
2022-10-10T19:39:00.686Z,102125.38
2022-10-10T19:41:28.691Z,102130.56
2022-10-10T19:43:58.040Z,102135.38
2022-10-10T19:46:27.253Z,102131.59
2022-10-10T19:48:58.048Z,102141.59
2022-10-10T19:51:29.460Z,102141.69
2022-10-10T19:53:57.435Z,102141.25
2022-10-10T19:56:25.880Z,102155.53
2022-10-10T19:58:55.597Z,102154.88
2022-10-10T20:01:29.065Z,102155.94
2022-10-10T20:03:57.024Z,102155.72
2022-10-10T20:06:24.065Z,102162.06
2022-10-10T20:08:51.040Z,102164.75
2022-10-10T20:11:20.246Z,102180.16
2022-10-10T20:13:51.832Z,102175.16
2022-10-10T20:16:18.887Z,102178.75
2022-10-10T20:18:45.764Z,102174.16
2022-10-10T20:21:20.611Z,102185.72
2022-10-10T20:23:49.189Z,102195.00
2022-10-10T20:26:20.375Z,102185.66
2022-10-10T20:28:47.750Z,102195.34
2022-10-10T20:31:25.938Z,102200.06
2022-10-10T20:33:55.765Z,102198.75
2022-10-10T20:36:24.420Z,102202.31
2022-10-10T20:38:57.432Z,102203.19
2022-10-10T20:41:26.769Z,102202.69
2022-10-10T20:43:58.789Z,102211.56
2022-10-10T20:46:29.006Z,102209.84
2022-10-10T20:48:57.694Z,102211.72
2022-10-10T20:51:26.387Z,102218.50
2022-10-10T20:54:00.029Z,102219.69
2022-10-10T20:56:29.358Z,102223.84
2022-10-10T20:58:56.989Z,102228.91
2022-10-10T21:01:27.017Z,102228.38
2022-10-10T21:03:54.518Z,102234.63
2022-10-10T21:06:31.395Z,102238.66
2022-10-10T21:09:01.993Z,102244.03
2022-10-10T21:11:29.051Z,102239.53
2022-10-10T21:13:59.306Z,102246.81
2022-10-10T21:16:39.670Z,102247.41
2022-10-10T21:19:11.657Z,102248.41
2022-10-10T21:21:39.313Z,102251.00
2022-10-10T21:24:08.552Z,102258.47
2022-10-10T21:26:35.517Z,102255.88
2022-10-10T21:29:03.191Z,102258.75
2022-10-10T21:31:36.813Z,102256.63
2022-10-10T21:34:07.349Z,102264.25
2022-10-10T21:36:36.616Z,102265.84
2022-10-10T21:39:06.882Z,102277.09
2022-10-10T21:41:34.239Z,102268.84
2022-10-10T21:44:01.358Z,102285.44
2022-10-10T21:46:36.224Z,102280.31
2022-10-10T21:49:10.116Z,102282.34
2022-10-10T21:51:41.110Z,102284.94
2022-10-10T21:54:09.356Z,102294.25
2022-10-10T21:56:37.874Z,102304.69
2022-10-10T21:59:05.888Z,102299.13
2022-10-10T22:01:33.613Z,102302.00
2022-10-10T22:04:01.657Z,102300.22
2022-10-10T22:06:29.296Z,102302.03
2022-10-10T22:09:02.845Z,102294.88
2022-10-10T22:11:32.514Z,102299.94
2022-10-10T22:14:02.283Z,102295.50
2022-10-10T22:16:30.290Z,102304.13
2022-10-10T22:18:58.527Z,102304.94
2022-10-10T22:21:30.490Z,102305.56
2022-10-10T22:24:03.437Z,102303.84
2022-10-10T22:26:31.116Z,102300.06
2022-10-10T22:28:58.285Z,102313.84
2022-10-10T22:31:25.809Z,102303.50
2022-10-10T22:33:52.765Z,102303.69
2022-10-10T22:36:19.747Z,102317.13
2022-10-10T22:38:46.674Z,102316.34
2022-10-10T22:41:14.124Z,102316.78
2022-10-10T22:43:41.220Z,102321.44
2022-10-10T22:46:09.165Z,102326.56
2022-10-10T22:48:36.590Z,102324.78
2022-10-10T22:51:17.443Z,102319.59
2022-10-10T22:53:46.532Z,102331.41
2022-10-10T22:56:15.911Z,102333.69
2022-10-10T22:58:43.719Z,102332.31
2022-10-10T23:01:16.890Z,102328.94
2022-10-10T23:03:44.220Z,102335.69
2022-10-10T23:06:11.413Z,102329.50
2022-10-10T23:08:38.437Z,102327.28
2022-10-10T23:11:05.579Z,102325.31
2022-10-10T23:13:33.112Z,102326.75
2022-10-10T23:16:00.045Z,102327.13
2022-10-10T23:18:28.569Z,102317.97
2022-10-10T23:20:55.764Z,102317.63
2022-10-10T23:23:22.896Z,102317.53
2022-10-10T23:25:49.769Z,102321.00
2022-10-10T23:28:18.243Z,102326.25
2022-10-10T23:30:49.981Z,102319.94
2022-10-10T23:33:17.578Z,102331.22
2022-10-10T23:35:44.738Z,102335.16
2022-10-10T23:38:11.782Z,102337.72
2022-10-10T23:40:38.651Z,102329.06
2022-10-10T23:43:07.402Z,102337.81
2022-10-10T23:45:34.292Z,102334.78
2022-10-10T23:48:01.182Z,102331.31
2022-10-10T23:50:28.059Z,102328.56
2022-10-10T23:52:57.888Z,102329.63
2022-10-10T23:55:25.455Z,102338.59
2022-10-10T23:57:52.375Z,102329.69
